Time;durP1;ratioP1;P1;durP2;ratioP2;P2;SDS_P1;SDS_P2;PMS_P1;PMS_P2;Temp;Humidity;BMP_temperature;BMP_pressure;BME280_temperature;BME280_humidity;BME280_pressure;Samples;Min_cycle;Max_cycle;Signal;HPM_P1;HPM_P2
2021/03/27 00:01:49;;;;;;;8.87;7.93;;;11.80;66.60;;;;;;5132111;27;20619;-81
2021/03/27 00:04:22;;;;;;;8.80;7.90;;;11.70;66.80;;;;;;5131721;27;20622;-81
2021/03/27 00:06:52;;;;;;;8.83;7.93;;;11.60;67.80;;;;;;5132212;27;20724;-81
2021/03/27 00:09:39;;;;;;;9.93;7.90;;;11.40;69.10;;;;;;5132800;27;21388;-82
2021/03/27 00:12:12;;;;;;;9.37;7.87;;;11.50;70.20;;;;;;5131957;27;20694;-81
2021/03/27 00:14:43;;;;;;;8.23;7.37;;;11.40;70.90;;;;;;5112034;28;21164;-81
2021/03/27 00:17:14;;;;;;;12.83;7.03;;;11.60;71.60;;;;;;5129145;27;21175;-81
2021/03/27 00:19:47;;;;;;;7.77;6.97;;;11.60;71.40;;;;;;5111350;28;20618;-81
2021/03/27 00:22:20;;;;;;;8.13;7.43;;;11.60;70.70;;;;;;5128861;27;21197;-81
2021/03/27 00:25:05;;;;;;;6.27;5.67;;;11.60;69.90;;;;;;5129746;27;20614;-81
2021/03/27 00:27:37;;;;;;;8.17;7.30;;;11.40;70.80;;;;;;5132147;27;20611;-81
2021/03/27 00:30:09;;;;;;;6.90;6.10;;;11.50;71.20;;;;;;5131049;27;20624;-81
2021/03/27 00:32:41;;;;;;;6.93;5.73;;;11.40;71.80;;;;;;5132724;27;20646;-81
2021/03/27 00:35:12;;;;;;;8.27;5.90;;;11.40;72.50;;;;;;5132630;27;20619;-81
2021/03/27 00:37:40;;;;;;;7.47;6.70;;;11.50;72.20;;;;;;5132106;27;20683;-81
2021/03/27 00:40:11;;;;;;;8.90;7.10;;;11.40;72.70;;;;;;5132116;27;20622;-81
2021/03/27 00:42:41;;;;;;;9.23;7.40;;;11.30;73.50;;;;;;5130883;27;21525;-81
2021/03/27 00:45:11;;;;;;;6.40;5.63;;;11.30;73.40;;;;;;5112039;28;20616;-82
2021/03/27 00:47:41;;;;;;;8.10;6.63;;;11.30;73.70;;;;;;5123497;27;20615;-81
2021/03/27 00:50:13;;;;;;;6.80;6.03;;;11.30;73.60;;;;;;5131460;27;20618;-81
2021/03/27 00:52:45;;;;;;;7.97;6.20;;;11.40;73.90;;;;;;5131773;27;20627;-84
2021/03/27 00:55:15;;;;;;;8.43;6.70;;;11.40;72.90;;;;;;5132065;27;20726;-82
2021/03/27 00:57:51;;;;;;;7.00;6.30;;;11.40;72.80;;;;;;5132347;27;21191;-81
2021/03/27 01:00:26;;;;;;;6.90;6.20;;;11.40;73.00;;;;;;5111197;28;21043;-81
2021/03/27 01:02:59;;;;;;;10.40;6.53;;;11.20;74.00;;;;;;5120127;27;20623;-82
2021/03/27 01:05:29;;;;;;;6.60;6.00;;;11.20;74.80;;;;;;5130828;27;21035;-81
2021/03/27 01:07:58;;;;;;;8.37;5.80;;;11.20;75.90;;;;;;5130214;27;20623;-81
2021/03/27 01:10:31;;;;;;;6.75;6.15;;;11.00;76.80;;;;;;5110724;28;20999;-81
2021/03/27 01:13:01;;;;;;;7.33;6.63;;;11.00;77.30;;;;;;5119403;27;20197;-82
2021/03/27 01:15:31;;;;;;;7.00;6.30;;;10.90;77.70;;;;;;5131040;27;20591;-82
2021/03/27 01:18:01;;;;;;;6.95;6.25;;;10.80;78.50;;;;;;5130249;27;20197;-82
2021/03/27 01:20:36;;;;;;;7.33;6.10;;;10.70;78.90;;;;;;5130434;27;20193;-81
2021/03/27 01:23:04;;;;;;;7.68;6.65;;;10.60;79.70;;;;;;5129706;27;20626;-80
2021/03/27 01:25:34;;;;;;;6.90;5.70;;;10.90;80.30;;;;;;5131101;27;20219;-80
2021/03/27 01:28:04;;;;;;;6.97;6.27;;;10.80;80.00;;;;;;5129712;27;20231;-82
2021/03/27 01:30:36;;;;;;;6.93;6.17;;;10.90;80.40;;;;;;5110031;28;20647;-82
2021/03/27 01:33:12;;;;;;;6.90;5.93;;;10.90;80.80;;;;;;5126109;27;21183;-81
2021/03/27 01:35:44;;;;;;;8.10;6.17;;;10.90;80.60;;;;;;5130650;27;20642;-81
2021/03/27 01:38:14;;;;;;;6.47;5.80;;;10.90;81.10;;;;;;5130932;27;20690;-81
2021/03/27 01:40:59;;;;;;;7.90;6.67;;;10.90;80.80;;;;;;5130322;27;20626;-82
2021/03/27 01:43:32;;;;;;;5.80;5.17;;;11.00;81.00;;;;;;5130703;27;20621;-81
2021/03/27 01:46:24;;;;;;;6.23;5.63;;;10.90;81.00;;;;;;5130989;27;20642;-82
2021/03/27 01:48:59;;;;;;;7.25;6.63;;;10.90;82.30;;;;;;5130487;27;20631;-81
2021/03/27 01:51:47;;;;;;;6.83;5.87;;;11.00;83.20;;;;;;5129897;27;20713;-82
2021/03/27 01:54:18;;;;;;;7.50;6.80;;;10.80;85.00;;;;;;5119784;27;20630;-81
2021/03/27 01:56:53;;;;;;;7.10;6.25;;;10.70;87.40;;;;;;5130289;27;20638;-83
2021/03/27 01:59:26;;;;;;;8.00;7.07;;;10.60;88.40;;;;;;5130598;27;20213;-81
2021/03/27 02:01:58;;;;;;;8.37;6.43;;;10.50;90.20;;;;;;5131802;27;20987;-82
2021/03/27 02:04:29;;;;;;;6.53;5.93;;;10.40;90.70;;;;;;5129791;27;20683;-82
2021/03/27 02:07:03;;;;;;;9.30;7.00;;;10.30;90.90;;;;;;5130788;27;20645;-81
2021/03/27 02:09:39;;;;;;;7.50;6.80;;;10.00;91.80;;;;;;5126439;27;20540;-81
2021/03/27 02:12:12;;;;;;;7.55;6.72;;;10.00;92.50;;;;;;5123999;28;20224;-82
2021/03/27 02:14:48;;;;;;;8.38;6.95;;;10.10;93.00;;;;;;5126171;28;20201;-81
2021/03/27 02:17:19;;;;;;;9.95;7.10;;;10.10;93.10;;;;;;5130258;27;20200;-82
2021/03/27 02:20:16;;;;;;;8.57;7.70;;;10.10;93.50;;;;;;5129852;28;20189;-82
2021/03/27 02:22:51;;;;;;;11.52;7.45;;;10.00;94.40;;;;;;5129040;28;20204;-83
2021/03/27 02:25:51;;;;;;;7.43;6.70;;;9.80;96.40;;;;;;5130462;28;20320;-83
2021/03/27 02:28:31;;;;;;;10.75;8.57;;;9.80;97.50;;;;;;5129865;27;20189;-83
2021/03/27 02:31:10;;;;;;;7.95;6.88;;;9.80;98.40;;;;;;5131025;27;20700;-82
2021/03/27 02:33:47;;;;;;;9.27;7.63;;;9.70;99.20;;;;;;5133793;27;20204;-83
2021/03/27 02:36:26;;;;;;;8.40;7.50;;;9.70;99.80;;;;;;5134366;27;20613;-83
2021/03/27 02:39:05;;;;;;;12.52;6.82;;;9.70;99.90;;;;;;5134037;27;20462;-83
2021/03/27 02:41:47;;;;;;;8.25;7.28;;;9.50;99.90;;;;;;5113984;28;20216;-82
2021/03/27 02:44:22;;;;;;;7.95;7.15;;;9.50;99.90;;;;;;5133791;27;20224;-81
2021/03/27 02:46:54;;;;;;;14.68;8.25;;;9.50;99.90;;;;;;5134610;27;20225;-81
2021/03/27 02:49:30;;;;;;;10.50;7.55;;;9.60;99.90;;;;;;5134211;27;20231;-82
2021/03/27 02:52:13;;;;;;;10.73;8.07;;;9.60;99.90;;;;;;5134014;27;20246;-83
2021/03/27 02:54:52;;;;;;;8.65;7.78;;;9.60;99.90;;;;;;5133436;27;20205;-82
2021/03/27 02:57:24;;;;;;;8.38;7.57;;;9.50;99.90;;;;;;5134471;27;20205;-82
2021/03/27 02:59:58;;;;;;;8.35;7.55;;;9.50;99.90;;;;;;5134530;27;20225;-82
2021/03/27 03:02:41;;;;;;;8.25;6.95;;;9.40;99.90;;;;;;5134286;27;20560;-82
2021/03/27 03:05:14;;;;;;;8.00;7.20;;;9.40;99.90;;;;;;5145134;27;20201;-82
2021/03/27 03:08:03;;;;;;;11.20;8.57;;;9.60;99.90;;;;;;5141596;27;20195;-82
2021/03/27 03:10:36;;;;;;;8.93;7.75;;;9.50;99.90;;;;;;5160710;27;20224;-82
2021/03/27 03:13:16;;;;;;;8.13;7.28;;;9.40;99.90;;;;;;5144658;27;20686;-84
2021/03/27 03:15:50;;;;;;;8.27;7.18;;;9.50;99.90;;;;;;5136894;27;20204;-83
2021/03/27 03:18:27;;;;;;;9.85;8.60;;;9.60;99.90;;;;;;5133843;27;20197;-83
2021/03/27 03:20:57;;;;;;;9.25;8.35;;;9.60;99.90;;;;;;5133360;27;20225;-84
2021/03/27 03:23:35;;;;;;;9.30;7.35;;;9.50;99.90;;;;;;5132818;27;20273;-84
2021/03/27 03:26:12;;;;;;;8.00;6.90;;;9.60;99.90;;;;;;5133295;27;20540;-84
2021/03/27 03:28:49;;;;;;;6.68;5.95;;;9.60;99.90;;;;;;5133420;27;20276;-84
2021/03/27 03:31:29;;;;;;;6.57;5.95;;;9.60;99.90;;;;;;5133425;27;20217;-84
2021/03/27 03:34:18;;;;;;;5.35;4.85;;;9.70;99.90;;;;;;5132581;27;20208;-83
2021/03/27 03:36:56;;;;;;;7.97;6.82;;;9.60;99.90;;;;;;5132989;27;20227;-84
2021/03/27 03:39:35;;;;;;;5.60;4.85;;;9.60;99.90;;;;;;5130540;27;20189;-84
2021/03/27 03:42:20;;;;;;;6.50;5.53;;;9.60;99.90;;;;;;5131780;27;20193;-85
2021/03/27 03:44:56;;;;;;;4.97;4.55;;;9.50;99.90;;;;;;5132821;27;20193;-84
2021/03/27 03:47:32;;;;;;;5.10;4.60;;;9.40;99.90;;;;;;5126788;27;20706;-83
2021/03/27 03:50:14;;;;;;;4.60;3.22;;;9.00;99.90;;;;;;5127186;27;20258;-83
2021/03/27 03:52:53;;;;;;;2.25;1.80;;;8.60;99.90;;;;;;5132359;27;20189;-82
2021/03/27 03:55:30;;;;;;;2.05;0.80;;;8.10;99.90;;;;;;5132479;27;20733;-84
2021/03/27 03:58:15;;;;;;;1.50;1.40;;;7.70;99.90;;;;;;5133220;27;20197;-84
2021/03/27 04:00:46;;;;;;;1.52;1.42;;;7.40;99.90;;;;;;5132989;27;20594;-84
2021/03/27 04:03:19;;;;;;;1.50;1.40;;;7.50;99.90;;;;;;5132456;27;20186;-83
2021/03/27 04:05:56;;;;;;;1.40;1.30;;;7.40;99.90;;;;;;5133218;27;20201;-83
2021/03/27 04:08:29;;;;;;;1.10;0.90;;;7.50;99.90;;;;;;5132187;27;20193;-84
2021/03/27 04:10:59;;;;;;;1.48;1.38;;;7.50;99.90;;;;;;5111914;28;20260;-83
2021/03/27 04:13:35;;;;;;;1.60;1.50;;;7.40;99.90;;;;;;5119747;27;20201;-84
2021/03/27 04:16:07;;;;;;;2.15;1.17;;;7.40;99.90;;;;;;5132597;27;20284;-82
2021/03/27 04:18:42;;;;;;;1.00;1.00;;;7.10;99.90;;;;;;5132954;27;20674;-82
2021/03/27 04:21:18;;;;;;;2.45;1.20;;;7.10;99.90;;;;;;5139935;27;20236;-82
2021/03/27 04:23:47;;;;;;;1.20;1.10;;;6.90;99.90;;;;;;5131808;27;20552;-83
2021/03/27 04:26:43;;;;;;;1.30;1.20;;;6.90;99.90;;;;;;5132782;27;20236;-83
2021/03/27 04:29:31;;;;;;;578.53;57.35;;;6.90;99.90;;;;;;5097881;27;20803;-82
2021/03/27 04:32:26;;;;;;;0.90;0.90;;;6.80;99.90;;;;;;5132286;27;20263;-84
2021/03/27 04:35:08;;;;;;;2.85;1.20;;;6.70;99.90;;;;;;5129753;27;20209;-81
2021/03/27 04:37:43;;;;;;;1.13;1.02;;;6.80;99.90;;;;;;5132274;27;20218;-83
2021/03/27 04:40:21;;;;;;;0.93;0.80;;;6.70;99.90;;;;;;5131893;27;20208;-81
2021/03/27 04:42:54;;;;;;;3.30;1.42;;;6.70;99.90;;;;;;5131360;27;20207;-83
2021/03/27 04:45:26;;;;;;;1.45;1.25;;;6.60;99.90;;;;;;5132273;27;20593;-82
2021/03/27 04:48:10;;;;;;;0.65;0.65;;;6.50;99.90;;;;;;5130981;27;20677;-82
2021/03/27 04:50:44;;;;;;;0.93;0.93;;;6.40;99.90;;;;;;5131449;27;20579;-82
2021/03/27 04:53:18;;;;;;;1.60;1.25;;;6.50;99.90;;;;;;5130560;27;20258;-82
2021/03/27 04:55:54;;;;;;;1.40;0.80;;;6.50;99.90;;;;;;5131835;27;20195;-82
2021/03/27 04:58:37;;;;;;;1.75;1.02;;;6.60;99.90;;;;;;5131921;27;20221;-82
2021/03/27 05:01:15;;;;;;;1.10;1.00;;;6.50;99.90;;;;;;5132261;27;20740;-82
2021/03/27 05:03:51;;;;;;;1.73;0.90;;;6.50;99.90;;;;;;5130905;27;20246;-82
2021/03/27 05:06:24;;;;;;;0.63;0.63;;;6.40;99.70;;;;;;5132723;27;20204;-82
2021/03/27 05:09:13;;;;;;;1.70;1.00;;;6.20;99.40;;;;;;5131416;27;20658;-81
2021/03/27 05:11:50;;;;;;;0.75;0.75;;;6.20;99.40;;;;;;5132278;27;20217;-81
2021/03/27 05:14:30;;;;;;;0.95;0.95;;;6.10;99.60;;;;;;5130981;27;20193;-82
2021/03/27 05:17:05;;;;;;;0.95;0.95;;;5.90;99.30;;;;;;5131913;27;20538;-82
2021/03/27 05:19:39;;;;;;;0.95;0.93;;;6.00;99.70;;;;;;5133452;27;20189;-82
2021/03/27 05:22:26;;;;;;;1.70;1.30;;;6.00;99.90;;;;;;5147444;27;20186;-81
2021/03/27 05:25:37;;;;;;;0.75;0.75;;;6.10;99.70;;;;;;5111019;28;20208;-81
2021/03/27 05:28:12;;;;;;;1.00;1.00;;;6.10;99.60;;;;;;5081538;27;20220;-82
2021/03/27 05:30:48;;;;;;;0.98;0.77;;;6.10;99.90;;;;;;5131321;27;20193;-81
2021/03/27 05:33:41;;;;;;;1.05;0.95;;;6.10;99.80;;;;;;5130842;27;20181;-81
2021/03/27 05:36:22;;;;;;;1.10;1.00;;;6.10;99.90;;;;;;5131055;27;20662;-81
2021/03/27 05:38:56;;;;;;;1.63;1.25;;;6.20;99.80;;;;;;5131128;27;20194;-82
2021/03/27 05:41:41;;;;;;;1.25;1.10;;;6.20;99.60;;;;;;5131116;27;20700;-81
2021/03/27 05:44:43;;;;;;;0.90;0.90;;;6.20;99.80;;;;;;5130281;27;20181;-82
2021/03/27 05:47:52;;;;;;;1.05;0.90;;;6.20;99.50;;;;;;5131199;27;20212;-82
2021/03/27 05:50:45;;;;;;;1.63;0.88;;;6.30;99.60;;;;;;5110778;28;20251;-81
2021/03/27 05:53:42;;;;;;;1.00;0.90;;;6.30;98.80;;;;;;5121308;27;20587;-81
2021/03/27 05:56:37;;;;;;;0.70;0.70;;;6.20;96.80;;;;;;5130614;27;20190;-81
2021/03/27 05:59:38;;;;;;;0.60;0.52;;;6.10;96.70;;;;;;5130584;27;20213;-81
2021/03/27 06:02:14;;;;;;;1.60;0.77;;;6.10;96.70;;;;;;5126406;27;20628;-81
2021/03/27 06:05:16;;;;;;;1.77;0.60;;;6.10;96.90;;;;;;5129953;27;20238;-81
2021/03/27 06:08:20;;;;;;;0.93;0.70;;;6.00;95.90;;;;;;5128316;27;20976;-80
2021/03/27 06:11:08;;;;;;;0.73;0.70;;;6.00;96.10;;;;;;5089294;28;20208;-80
2021/03/27 06:14:03;;;;;;;0.75;0.52;;;6.20;96.40;;;;;;5129453;28;20653;-82
2021/03/27 06:16:47;;;;;;;1.40;0.75;;;6.20;95.90;;;;;;5130339;27;20240;-81
2021/03/27 06:19:55;;;;;;;0.60;0.60;;;6.30;95.30;;;;;;5130573;28;20189;-81
2021/03/27 06:22:37;;;;;;;0.80;0.70;;;6.20;95.20;;;;;;5129824;28;20269;-81
2021/03/27 06:25:36;;;;;;;1.38;1.13;;;6.10;95.20;;;;;;5129396;28;20197;-81
2021/03/27 06:28:42;;;;;;;3.35;1.27;;;5.90;96.80;;;;;;5122263;28;20209;-81
2021/03/27 06:31:43;;;;;;;2.00;1.27;;;5.90;97.00;;;;;;5130617;27;20197;-81
2021/03/27 06:34:40;;;;;;;1.38;0.95;;;5.80;97.70;;;;;;5129723;28;20185;-81
2021/03/27 06:37:43;;;;;;;1.92;1.27;;;5.90;97.90;;;;;;5131140;27;20258;-81
2021/03/27 06:40:35;;;;;;;1.13;1.02;;;5.80;97.80;;;;;;5092028;28;20217;-81
2021/03/27 06:43:27;;;;;;;1.17;0.95;;;5.80;97.60;;;;;;5114143;28;20596;-81
2021/03/27 06:46:06;;;;;;;2.95;1.20;;;5.70;97.20;;;;;;5130447;27;20642;-81
2021/03/27 06:49:32;;;;;;;1.48;1.38;;;5.70;95.80;;;;;;5113642;28;20220;-81
2021/03/27 06:52:30;;;;;;;1.38;1.20;;;5.80;96.60;;;;;;5067306;28;20219;-81
2021/03/27 06:55:27;;;;;;;4.10;1.95;;;6.00;95.60;;;;;;5065060;28;20206;-81
2021/03/27 06:58:33;;;;;;;3.10;1.42;;;6.10;94.70;;;;;;5121007;27;20621;-81
2021/03/27 07:01:24;;;;;;;1.40;1.30;;;6.10;94.80;;;;;;5111894;27;20309;-82
2021/03/27 07:04:26;;;;;;;1.42;1.00;;;6.10;93.90;;;;;;5114964;27;20212;-82
2021/03/27 07:07:31;;;;;;;1.92;1.20;;;6.30;94.60;;;;;;5130572;28;20254;-82
2021/03/27 07:10:37;;;;;;;1.33;0.80;;;6.20;94.00;;;;;;5121585;28;20193;-83
2021/03/27 07:13:25;;;;;;;4.13;1.70;;;6.30;92.60;;;;;;5095038;28;20201;-82
2021/03/27 07:16:24;;;;;;;1.42;1.30;;;6.50;93.20;;;;;;5128399;28;20731;-82
2021/03/27 07:19:27;;;;;;;1.25;0.80;;;6.50;92.60;;;;;;5131376;27;20705;-82
2021/03/27 07:22:12;;;;;;;2.30;1.33;;;6.40;90.70;;;;;;5108282;27;20274;-82
2021/03/27 07:25:23;;;;;;;2.65;1.10;;;6.40;91.20;;;;;;5129835;27;20193;-82
2021/03/27 07:28:13;;;;;;;0.98;0.93;;;6.40;90.50;;;;;;5100358;27;20728;-83
2021/03/27 07:31:08;;;;;;;3.28;0.93;;;6.60;89.30;;;;;;5119194;27;20703;-83
2021/03/27 07:34:19;;;;;;;1.27;1.17;;;6.60;87.30;;;;;;5123708;27;20304;-82
2021/03/27 07:37:21;;;;;;;1.38;0.82;;;6.70;88.00;;;;;;5069890;28;20218;-82
2021/03/27 07:40:06;;;;;;;1.70;1.10;;;6.70;86.20;;;;;;5133271;27;20222;-82
2021/03/27 07:42:53;;;;;;;1.85;0.95;;;6.80;85.60;;;;;;5125794;27;20225;-82
2021/03/27 07:45:48;;;;;;;0.90;0.85;;;6.90;82.00;;;;;;5133819;27;20201;-82
2021/03/27 07:48:48;;;;;;;1.40;0.90;;;7.10;82.10;;;;;;5134384;27;20185;-83
2021/03/27 07:51:33;;;;;;;1.85;1.35;;;7.20;82.70;;;;;;5118134;27;20292;-82
2021/03/27 07:54:24;;;;;;;1.20;0.70;;;7.10;80.80;;;;;;5132079;27;20198;-82
2021/03/27 07:57:11;;;;;;;3.53;1.02;;;7.30;81.00;;;;;;5100035;27;20221;-82
2021/03/27 07:59:55;;;;;;;4.45;1.15;;;7.70;79.60;;;;;;5133851;27;20229;-82
2021/03/27 08:03:05;;;;;;;0.77;0.77;;;7.80;78.20;;;;;;5134698;27;20233;-82
2021/03/27 08:05:59;;;;;;;2.67;0.93;;;7.90;77.70;;;;;;5069056;27;20681;-83
2021/03/27 08:08:59;;;;;;;2.83;0.80;;;8.10;76.10;;;;;;5130302;27;20221;-83
2021/03/27 08:11:48;;;;;;;0.93;0.60;;;8.40;79.10;;;;;;5130790;27;20201;-84
2021/03/27 08:14:38;;;;;;;2.78;0.80;;;8.20;75.70;;;;;;5134373;27;20197;-84
2021/03/27 08:17:33;;;;;;;1.75;0.98;;;7.90;76.10;;;;;;5109424;27;20675;-84
2021/03/27 08:20:24;;;;;;;1.95;0.80;;;7.70;75.50;;;;;;5133093;27;20221;-85
2021/03/27 08:23:16;;;;;;;0.82;0.63;;;7.50;76.30;;;;;;5114101;27;20225;-84
2021/03/27 08:25:50;;;;;;;1.50;0.77;;;7.50;73.30;;;;;;5132847;27;20633;-85
2021/03/27 08:29:07;;;;;;;0.80;0.80;;;7.60;74.60;;;;;;5132841;27;20197;-85
2021/03/27 08:32:05;;;;;;;0.63;0.63;;;7.50;74.30;;;;;;5118877;27;20681;-84
2021/03/27 08:34:59;;;;;;;0.80;0.80;;;7.50;74.40;;;;;;5112099;27;20201;-84
2021/03/27 08:38:04;;;;;;;2.20;0.90;;;7.40;70.60;;;;;;5127965;27;20206;-85
2021/03/27 08:40:58;;;;;;;1.90;0.80;;;7.50;73.50;;;;;;5095205;27;20239;-85
2021/03/27 08:44:01;;;;;;;1.30;0.88;;;7.80;70.70;;;;;;5131136;27;20197;-84
2021/03/27 08:47:00;;;;;;;1.35;0.70;;;8.00;71.20;;;;;;5132561;27;20214;-85
2021/03/27 08:50:12;;;;;;;1.15;1.05;;;8.00;66.10;;;;;;5127529;27;20659;-85
2021/03/27 08:53:26;;;;;;;1.38;1.05;;;7.80;64.00;;;;;;5132901;27;20658;-84
2021/03/27 08:56:17;;;;;;;1.20;0.88;;;7.60;63.20;;;;;;5133791;27;20197;-84
2021/03/27 08:59:02;;;;;;;0.50;0.50;;;7.60;63.50;;;;;;5133233;27;20196;-83
2021/03/27 09:01:58;;;;;;;0.65;0.60;;;7.40;59.50;;;;;;5132998;27;20450;-84
2021/03/27 09:05:02;;;;;;;2.25;0.73;;;7.40;62.50;;;;;;5114733;27;20198;-84
2021/03/27 09:08:04;;;;;;;0.98;0.70;;;7.50;58.80;;;;;;5133822;27;20740;-84
2021/03/27 09:10:59;;;;;;;3.72;0.73;;;7.60;59.50;;;;;;5129701;27;20189;-84
2021/03/27 09:13:56;;;;;;;2.38;0.75;;;7.60;60.20;;;;;;5132030;27;20197;-84
2021/03/27 09:16:58;;;;;;;0.90;0.90;;;7.70;59.40;;;;;;5131585;27;20201;-83
2021/03/27 09:19:54;;;;;;;3.92;1.02;;;7.70;59.40;;;;;;5129767;27;20193;-84
2021/03/27 09:22:54;;;;;;;2.15;1.00;;;7.90;60.20;;;;;;5131189;27;20280;-83
2021/03/27 09:25:34;;;;;;;0.80;0.80;;;8.10;61.00;;;;;;5132882;27;20222;-84
2021/03/27 09:28:18;;;;;;;1.65;0.70;;;8.10;58.50;;;;;;5132344;27;20197;-84
2021/03/27 09:30:59;;;;;;;1.92;0.75;;;8.10;59.40;;;;;;5133116;27;20264;-84
2021/03/27 09:33:28;;;;;;;3.08;1.13;;;8.50;59.20;;;;;;5132671;27;20193;-84
2021/03/27 09:36:19;;;;;;;3.65;0.70;;;8.30;58.00;;;;;;5132654;27;20209;-84
2021/03/27 09:38:55;;;;;;;1.50;0.73;;;8.40;58.00;;;;;;5131893;27;20194;-84
2021/03/27 09:41:50;;;;;;;0.70;0.70;;;8.70;59.10;;;;;;5132281;27;20223;-84
2021/03/27 09:44:47;;;;;;;0.63;0.63;;;9.00;57.90;;;;;;5127086;27;20197;-85
2021/03/27 09:47:46;;;;;;;1.02;0.82;;;9.20;57.60;;;;;;5127784;27;20228;-84
2021/03/27 09:50:19;;;;;;;1.02;0.73;;;9.40;57.00;;;;;;5132672;27;20197;-85
2021/03/27 09:52:54;;;;;;;2.17;1.20;;;9.70;58.00;;;;;;5131096;27;20282;-85
2021/03/27 09:55:47;;;;;;;2.15;0.77;;;9.60;55.30;;;;;;5131374;27;20754;-85
2021/03/27 09:58:22;;;;;;;0.77;0.75;;;9.80;54.20;;;;;;5119811;27;20662;-84
2021/03/27 10:01:10;;;;;;;5.13;1.77;;;9.80;54.10;;;;;;5131957;27;20193;-84
2021/03/27 10:03:42;;;;;;;1.90;0.70;;;9.70;54.90;;;;;;5128937;27;20201;-85
2021/03/27 10:06:41;;;;;;;2.85;0.90;;;9.90;54.90;;;;;;5130848;27;20678;-85
2021/03/27 10:09:18;;;;;;;2.15;1.10;;;9.60;53.90;;;;;;5131297;27;20268;-85
2021/03/27 10:11:49;;;;;;;1.77;0.90;;;9.80;54.60;;;;;;5131274;27;20201;-85
2021/03/27 10:14:20;;;;;;;1.08;0.98;;;10.10;52.90;;;;;;5130804;27;20705;-85
2021/03/27 10:16:51;;;;;;;0.80;0.70;;;10.30;52.30;;;;;;5130918;28;20673;-85
2021/03/27 10:19:29;;;;;;;0.43;0.43;;;10.20;52.40;;;;;;5130257;28;20622;-85
2021/03/27 10:22:18;;;;;;;1.30;0.57;;;10.40;53.90;;;;;;5130964;28;20665;-85
2021/03/27 10:24:49;;;;;;;1.43;0.83;;;10.40;52.90;;;;;;5108424;28;20976;-85
2021/03/27 10:27:21;;;;;;;1.27;0.80;;;10.30;51.40;;;;;;5119068;28;20946;-84
2021/03/27 10:30:00;;;;;;;0.87;0.83;;;10.30;52.60;;;;;;5125314;28;21019;-86
2021/03/27 10:32:55;;;;;;;2.17;1.38;;;9.90;50.20;;;;;;5129910;28;20711;-86
2021/03/27 10:35:53;;;;;;;1.23;0.77;;;9.60;51.70;;;;;;5115140;28;20194;-85
2021/03/27 10:38:43;;;;;;;2.15;0.98;;;9.60;52.60;;;;;;5127742;28;20630;-85
2021/03/27 10:41:21;;;;;;;0.80;0.50;;;9.50;51.40;;;;;;5129027;27;20209;-85
2021/03/27 10:43:52;;;;;;;1.98;0.60;;;9.60;50.60;;;;;;5121396;28;20193;-85
2021/03/27 10:46:29;;;;;;;0.93;0.80;;;9.70;50.40;;;;;;5129625;27;20197;-85
2021/03/27 10:49:28;;;;;;;2.42;1.00;;;10.20;52.10;;;;;;5127780;28;20283;-85
2021/03/27 10:52:42;;;;;;;0.70;0.43;;;10.40;49.60;;;;;;5130694;27;20181;-86
2021/03/27 10:55:51;;;;;;;0.95;0.60;;;10.20;48.10;;;;;;5117776;27;20605;-86
2021/03/27 10:59:05;;;;;;;2.35;0.82;;;9.60;49.40;;;;;;5117762;27;20217;-86
2021/03/27 11:02:08;;;;;;;0.50;0.50;;;9.70;50.20;;;;;;5070023;27;20225;-86
2021/03/27 11:05:00;;;;;;;1.20;1.02;;;9.50;49.00;;;;;;5131603;27;20192;-85
2021/03/27 11:08:04;;;;;;;1.98;0.70;;;9.80;51.30;;;;;;5125644;27;20221;-86
2021/03/27 11:11:01;;;;;;;0.70;0.50;;;10.30;49.20;;;;;;5101775;27;20200;-86
2021/03/27 11:13:57;;;;;;;1.08;0.82;;;10.30;48.20;;;;;;5119409;27;20695;-86
2021/03/27 11:16:52;;;;;;;0.80;0.77;;;10.30;48.30;;;;;;5132982;27;20201;-86
2021/03/27 11:19:54;;;;;;;0.90;0.90;;;10.30;48.00;;;;;;5131823;27;20615;-86
2021/03/27 11:23:06;;;;;;;2.97;0.83;;;10.50;49.70;;;;;;5115262;27;20773;-85
2021/03/27 11:26:11;;;;;;;1.73;0.80;;;10.40;48.50;;;;;;5093092;27;20623;-86
2021/03/27 11:28:43;;;;;;;4.50;0.80;;;10.40;47.80;;;;;;5132529;27;20615;-86
2021/03/27 11:31:35;;;;;;;2.47;0.80;;;10.50;48.50;;;;;;5117664;27;20647;-86
2021/03/27 11:34:11;;;;;;;0.80;0.80;;;10.80;49.10;;;;;;5126711;27;21242;-86
2021/03/27 11:36:43;;;;;;;2.27;1.60;;;10.90;47.80;;;;;;5130952;27;20615;-85
2021/03/27 11:39:22;;;;;;;2.00;1.40;;;10.90;48.60;;;;;;5132540;27;20621;-85
2021/03/27 11:41:58;;;;;;;3.83;2.17;;;10.60;48.80;;;;;;5133011;27;20643;-85
2021/03/27 11:44:47;;;;;;;1.70;1.10;;;10.90;48.70;;;;;;5131627;27;20964;-86
2021/03/27 11:47:26;;;;;;;2.33;1.30;;;11.00;47.00;;;;;;5131071;27;21012;-86
2021/03/27 11:50:06;;;;;;;0.83;0.83;;;10.80;48.00;;;;;;5132597;27;20618;-86
2021/03/27 11:52:41;;;;;;;1.07;0.83;;;10.20;48.40;;;;;;5130717;27;21021;-85
2021/03/27 11:55:19;;;;;;;3.00;1.77;;;10.20;49.50;;;;;;5131185;27;20624;-85
2021/03/27 11:57:50;;;;;;;2.53;1.10;;;10.00;49.40;;;;;;5130770;27;20622;-86
2021/03/27 12:03:25;;;;;;;1.95;0.98;;;9.80;48.30;;;;;;5128037;27;20666;-85
2021/03/27 12:06:00;;;;;;;3.50;1.23;;;9.80;50.10;;;;;;5130809;27;20531;-85
2021/03/27 12:08:34;;;;;;;2.67;1.27;;;9.50;50.90;;;;;;5130458;27;20607;-85
2021/03/27 12:11:08;;;;;;;4.53;0.98;;;9.50;51.40;;;;;;5110898;28;20255;-85
2021/03/27 12:13:40;;;;;;;1.45;0.75;;;9.40;51.10;;;;;;5129891;27;20201;-86
2021/03/27 12:16:25;;;;;;;0.88;0.80;;;9.50;51.50;;;;;;5131163;27;20533;-87
2021/03/27 12:19:32;;;;;;;3.45;0.75;;;9.60;51.10;;;;;;5131226;27;20201;-85
2021/03/27 12:22:08;;;;;;;2.17;1.20;;;9.70;51.10;;;;;;5123903;27;20225;-85
2021/03/27 12:24:48;;;;;;;2.05;1.08;;;9.80;50.80;;;;;;5130542;27;20201;-85
2021/03/27 12:27:28;;;;;;;2.65;1.30;;;9.70;50.20;;;;;;5131199;27;20189;-85
2021/03/27 12:30:06;;;;;;;0.88;0.70;;;9.80;50.70;;;;;;5131209;27;20276;-85
2021/03/27 12:32:47;;;;;;;1.10;1.00;;;9.80;50.00;;;;;;5130728;27;20197;-84
2021/03/27 12:35:23;;;;;;;1.08;0.60;;;9.70;50.20;;;;;;5127835;27;21027;-85
2021/03/27 12:38:03;;;;;;;4.10;1.10;;;9.60;50.90;;;;;;5114595;27;20200;-85
2021/03/27 12:40:33;;;;;;;4.90;1.38;;;9.40;50.80;;;;;;5136857;27;20200;-85
2021/03/27 12:43:07;;;;;;;2.08;1.80;;;9.60;51.10;;;;;;5135949;27;20274;-85
2021/03/27 12:45:37;;;;;;;4.63;3.50;;;9.60;50.60;;;;;;5130732;27;20186;-86
2021/03/27 12:48:21;;;;;;;4.63;2.92;;;9.80;51.10;;;;;;5138924;27;20189;-85
2021/03/27 12:51:09;;;;;;;1.77;1.00;;;9.80;50.40;;;;;;5140337;27;20194;-85
2021/03/27 12:54:06;;;;;;;1.90;1.00;;;9.90;50.70;;;;;;5151165;27;20208;-85
2021/03/27 12:56:58;;;;;;;1.55;1.33;;;9.80;49.60;;;;;;5113593;28;20642;-84
2021/03/27 12:59:34;;;;;;;5.53;2.50;;;9.90;50.00;;;;;;5071102;27;20205;-85
2021/03/27 13:02:28;;;;;;;5.30;1.85;;;10.00;48.40;;;;;;5132792;27;20224;-85
2021/03/27 13:05:19;;;;;;;1.75;1.60;;;10.00;48.40;;;;;;5143875;27;20196;-85
2021/03/27 13:07:55;;;;;;;3.20;1.77;;;9.70;48.90;;;;;;5150196;27;20208;-85
2021/03/27 13:10:49;;;;;;;5.30;2.97;;;10.00;48.40;;;;;;5136429;27;20615;-85
2021/03/27 13:13:46;;;;;;;2.30;1.73;;;10.50;48.10;;;;;;5132656;27;20257;-85
2021/03/27 13:16:18;;;;;;;6.17;4.47;;;10.60;47.90;;;;;;5111756;28;20604;-86
2021/03/27 13:18:54;;;;;;;3.00;2.00;;;10.60;47.10;;;;;;5113374;28;20612;-85
2021/03/27 13:21:33;;;;;;;1.47;1.20;;;10.60;47.00;;;;;;5113167;28;20615;-85
2021/03/27 13:24:08;;;;;;;1.70;1.43;;;10.50;47.90;;;;;;5124854;27;20689;-85
2021/03/27 13:26:36;;;;;;;2.63;1.20;;;10.30;46.00;;;;;;5133698;27;20618;-85
2021/03/27 13:32:00;;;;;;;2.07;1.30;;;10.60;47.10;;;;;;5134239;27;20197;-85
2021/03/27 13:34:32;;;;;;;2.10;1.53;;;10.50;46.20;;;;;;5132376;27;20618;-85
2021/03/27 13:37:07;;;;;;;2.70;1.30;;;10.50;47.80;;;;;;5132770;27;20644;-86
2021/03/27 13:39:38;;;;;;;6.00;1.20;;;10.50;47.50;;;;;;5132680;27;20617;-86
2021/03/27 13:42:36;;;;;;;3.33;1.30;;;10.30;47.30;;;;;;5133665;27;20666;-85
2021/03/27 13:45:26;;;;;;;3.07;1.23;;;10.30;46.80;;;;;;5132686;27;20619;-85
2021/03/27 13:48:03;;;;;;;4.40;2.50;;;10.30;47.80;;;;;;5132692;27;20646;-86
2021/03/27 13:50:39;;;;;;;1.50;1.00;;;10.70;47.60;;;;;;5132529;27;20603;-85
2021/03/27 13:53:16;;;;;;;5.80;4.87;;;10.70;47.40;;;;;;5134531;27;20615;-85
2021/03/27 13:55:55;;;;;;;2.43;2.23;;;11.30;45.90;;;;;;5135151;27;20649;-86
2021/03/27 13:58:25;;;;;;;2.10;2.00;;;11.60;45.00;;;;;;5133326;27;21163;-85
2021/03/27 14:00:59;;;;;;;2.23;1.43;;;13.30;44.20;;;;;;5133532;27;20608;-85
2021/03/27 14:03:48;;;;;;;2.50;1.13;;;15.20;41.90;;;;;;5134304;27;20774;-86
2021/03/27 14:06:28;;;;;;;3.10;1.90;;;16.30;40.10;;;;;;5134300;27;20614;-86
2021/03/27 14:09:36;;;;;;;2.60;1.00;;;16.70;40.40;;;;;;5133739;27;20627;-84
2021/03/27 14:12:07;;;;;;;3.33;3.13;;;17.80;37.90;;;;;;5134213;27;20747;-84
2021/03/27 14:14:38;;;;;;;21.47;19.60;;;17.90;37.20;;;;;;5133045;27;20608;-83
2021/03/27 14:17:13;;;;;;;3.80;1.57;;;15.90;37.50;;;;;;5132202;27;20611;-83
2021/03/27 14:19:51;;;;;;;1.90;1.20;;;14.40;39.90;;;;;;5131930;27;20617;-85
2021/03/27 14:22:39;;;;;;;3.30;1.40;;;13.10;41.60;;;;;;5131675;27;20661;-86
2021/03/27 14:25:25;;;;;;;1.20;1.10;;;12.70;43.10;;;;;;5133381;28;20623;-85